Item Display Status Humidity-temperature Sensor

Elevation Above Sea Level: 3 m

 

Deployed Sensor

  • Serial Number: 20351123
  • NDBC Property Number: 43293
  • Start Date: 4/17/2020 (10:35:43 Z)
  • End Date: Currently Active
Relative Humidity [%]     6 entries per hour
Showing data from 6/24/2021 (17:00:00 Z) to 6/23/2021 (00:00:01 Z)
Previous Next [ Day | 3-Days | 7-Days ]
First Last
Prev [ Day | 3-Days | 7-Days ] Next
First Last

Start Time:     :
End Time:     :     
Time (in GMT) :00 :50 :40 :30 :20 :10
Previous Next [ Day | 3-Days | 7-Days ]
First Last
Prev [ Day | 3-Days | 7-Days ] Next
First Last


123 => good data
MM => data is determined as missing
-- => data not received/configured
Back to Top Back to Top
6/24/2021 17:00 to 16:10 94.77 93.72 92.28 91.15 92.30 93.16
6/24/2021 16:00 to 15:10 93.20 92.77 91.81 91.13 90.88 90.51
6/24/2021 15:00 to 14:10 89.79 88.89 88.25 87.33 87.43 87.16
6/24/2021 14:00 to 13:10 86.07 85.46 85.33 85.13 85.27 85.44
6/24/2021 13:00 to 12:10 85.72 86.07 86.53 86.40 85.58 85.50
6/24/2021 12:00 to 11:10 85.64 85.72 86.20 85.68 85.42 85.15
6/24/2021 11:00 to 10:10 85.11 85.39 85.31 84.47 84.86 84.80
6/24/2021 10:00 to 9:10 85.37 84.96 85.17 85.39 85.31 84.98
6/24/2021 09:00 to 8:10 84.84 84.72 85.09 84.78 84.02 83.50
6/24/2021 08:00 to 7:10 83.87 83.98 83.73 84.00 84.33 84.08
6/24/2021 07:00 to 6:10 84.29 84.66 85.37 85.83 85.31 85.15
6/24/2021 06:00 to 5:10 84.92 85.19 85.25 84.72 84.02 84.02
6/24/2021 05:00 to 4:10 84.41 84.74 85.21 85.79 85.70 85.56
6/24/2021 04:00 to 3:10 85.54 85.54 85.68 85.25 85.42 85.27
6/24/2021 03:00 to 2:10 84.96 84.94 85.03 84.84 84.72 84.70
6/24/2021 02:00 to 1:10 84.47 84.82 85.00 84.10 83.67 83.69
6/24/2021 01:00 to 0:10 83.48 83.20 84.20 83.55 82.19 81.80
6/24/2021 00:00 to 23:10 82.29 82.76 82.48 82.17 82.11 82.89
6/23/2021 23:00 to 22:10 82.87 82.85 82.72 82.66 82.66 82.44
6/23/2021 22:00 to 21:10 82.25 82.64 82.89 82.70 82.62 83.61
6/23/2021 21:00 to 20:10 84.16 83.85 83.36 82.13 82.27 82.81
6/23/2021 20:00 to 19:10 83.24 83.01 82.85 82.50 82.70 82.64
6/23/2021 19:00 to 18:10 82.00 82.29 82.52 82.13 82.87 83.57
6/23/2021 18:00 to 17:10 84.29 83.71 83.42 83.11 83.11 83.53
6/23/2021 17:00 to 16:10 83.53 83.09 82.68 82.72 83.55 84.12
6/23/2021 16:00 to 15:10 84.47 84.12 84.18 84.39 84.63 84.26
6/23/2021 15:00 to 14:10 84.12 84.51 85.44 86.11 86.26 86.87
6/23/2021 14:00 to 13:10 87.55 87.86 87.24 87.49 87.45 87.41
6/23/2021 13:00 to 12:10 87.26 86.48 87.08 87.24 87.12 87.57
6/23/2021 12:00 to 11:10 87.90 87.90 87.90 87.68 87.47 87.43
6/23/2021 11:00 to 10:10 87.26 86.92 87.04 87.22 87.51 87.72
6/23/2021 10:00 to 9:10 87.37 87.55 87.43 87.51 87.96 87.88
6/23/2021 09:00 to 8:10 88.35 88.27 88.58 88.42 88.21 87.92
6/23/2021 08:00 to 7:10 88.03 87.88 87.59 87.61 87.08 86.67
6/23/2021 07:00 to 6:10 87.18 88.00 87.74 88.09 88.09 88.40
6/23/2021 06:00 to 5:10 88.85 88.97 89.75 91.29 92.32 91.64
6/23/2021 05:00 to 4:10 90.86 91.15 90.74 89.55 88.03 89.13
6/23/2021 04:00 to 3:10 89.65 88.44 88.74 88.25 87.82 87.47
6/23/2021 03:00 to 2:10 87.06 86.69 87.26 87.20 87.43 87.55
6/23/2021 02:00 to 1:10 88.00 88.15 87.90 87.55 86.65 86.85
6/23/2021 01:00 to 0:10 86.77 86.71 86.59 86.38 86.32 86.48

 

 

 

Air Temperature [°C]     6 entries per hour
Showing data from 6/24/2021 (17:00:00 Z) to 6/23/2021 (00:00:01 Z)
Previous Next [ Day | 3-Days | 7-Days ]
First Last
Prev [ Day | 3-Days | 7-Days ] Next
First Last

Start Time:     :
End Time:     :     
Time (in GMT) :00 :50 :40 :30 :20 :10
Previous Next [ Day | 3-Days | 7-Days ]
First Last
Prev [ Day | 3-Days | 7-Days ] Next
First Last


123 => good data
MM => data is determined as missing
-- => data not received/configured
Back to Top Back to Top
6/24/2021 17:00 to 16:10 25.80 25.98 26.22 26.45 25.97 25.87
6/24/2021 16:00 to 15:10 25.84 25.79 25.97 26.40 26.21 26.25
6/24/2021 15:00 to 14:10 26.41 26.43 26.43 26.58 26.90 26.63
6/24/2021 14:00 to 13:10 26.40 26.75 26.66 26.71 26.66 26.77
6/24/2021 13:00 to 12:10 26.59 26.48 26.67 26.71 26.68 26.55
6/24/2021 12:00 to 11:10 26.53 26.60 26.52 26.67 26.67 26.62
6/24/2021 11:00 to 10:10 26.51 26.52 26.61 26.70 26.53 26.64
6/24/2021 10:00 to 9:10 26.74 26.64 26.56 26.53 26.68 26.70
6/24/2021 09:00 to 8:10 26.51 26.46 26.61 26.49 26.79 26.51
6/24/2021 08:00 to 7:10 26.46 26.56 26.65 26.58 26.67 26.63
6/24/2021 07:00 to 6:10 26.77 26.63 26.60 26.64 26.64 26.73
6/24/2021 06:00 to 5:10 26.60 26.59 26.71 26.89 26.70 26.86
6/24/2021 05:00 to 4:10 26.73 26.68 26.66 26.77 26.75 26.71
6/24/2021 04:00 to 3:10 26.75 26.73 26.82 26.74 26.70 26.84
6/24/2021 03:00 to 2:10 26.79 26.74 26.87 26.87 26.79 26.87
6/24/2021 02:00 to 1:10 26.78 26.80 26.82 26.87 26.90 26.91
6/24/2021 01:00 to 0:10 26.96 26.74 26.81 27.02 27.04 26.89
6/24/2021 00:00 to 23:10 26.93 26.78 26.90 26.94 26.90 26.87
6/23/2021 23:00 to 22:10 27.05 26.89 27.00 27.12 27.11 26.95
6/23/2021 22:00 to 21:10 27.21 27.03 27.06 27.18 27.13 27.06
6/23/2021 21:00 to 20:10 27.14 26.99 27.27 27.22 27.17 27.10
6/23/2021 20:00 to 19:10 26.98 27.09 27.07 27.16 27.04 27.06
6/23/2021 19:00 to 18:10 27.09 26.97 27.09 26.93 27.26 27.00
6/23/2021 18:00 to 17:10 26.99 26.99 26.98 27.03 27.02 26.97
6/23/2021 17:00 to 16:10 26.93 27.03 27.10 26.94 26.82 26.97
6/23/2021 16:00 to 15:10 27.06 27.01 26.89 26.96 26.88 27.01
6/23/2021 15:00 to 14:10 26.80 27.00 26.77 26.74 26.91 26.74
6/23/2021 14:00 to 13:10 26.70 26.71 26.78 26.88 26.82 26.65
6/23/2021 13:00 to 12:10 26.85 26.66 26.62 26.58 26.62 26.60
6/23/2021 12:00 to 11:10 26.57 26.50 26.53 26.50 26.59 26.47
6/23/2021 11:00 to 10:10 26.49 26.72 26.62 26.54 26.67 26.62
6/23/2021 10:00 to 9:10 26.62 26.59 26.49 26.54 26.66 26.58
6/23/2021 09:00 to 8:10 26.73 26.49 26.62 26.60 26.62 26.63
6/23/2021 08:00 to 7:10 26.63 26.71 26.67 26.87 26.68 26.78
6/23/2021 07:00 to 6:10 26.77 26.71 26.83 26.65 26.69 26.71
6/23/2021 06:00 to 5:10 26.69 26.74 26.51 26.46 26.54 26.64
6/23/2021 05:00 to 4:10 26.54 26.55 26.49 26.58 26.55 26.42
6/23/2021 04:00 to 3:10 26.38 26.61 26.40 26.74 26.85 26.71
6/23/2021 03:00 to 2:10 26.86 26.78 26.83 26.83 26.78 26.77
6/23/2021 02:00 to 1:10 26.74 26.75 26.57 26.80 26.85 26.84
6/23/2021 01:00 to 0:10 27.00 26.78 26.95 26.78 26.85 26.85